Stations météo

réclame
Mon MeteoGroup
Gravesend, Grande-Bretagne (3784): Température de l'air & dewpoint: 15.06.2018 18:00:00 - 21.06.2018 18:00:00 (BST)Gravesend, Grande-Bretagne (3784): Vitesse du vent & gusts: 15.06.2018 18:00:00 - 21.06.2018 18:00:00 (BST)Gravesend, Grande-Bretagne (3784): Direction du vent: 15.06.2018 18:00:00 - 21.06.2018 18:00:00 (BST)Gravesend, Grande-Bretagne (3784): reduced air pressure: 15.06.2018 18:00:00 - 21.06.2018 18:00:00 (BST)
Date & Time tt [°C] td [°C] ff [km/h] ff [knt] fx [km/h] fx [knt] dd ppp [hPa]
21.06.2018 18:00:00 19,1 4,3 16 9 - - NNW 1026,9
21.06.2018 17:00:00 19,1 4,3 16 9 - - NNW 1026,6
21.06.2018 16:00:00 18,5 4,1 18 10 - - N 1026,3
21.06.2018 15:00:00 17,9 4,0 18 10 - - NNW 1026,0
21.06.2018 14:00:00 18,5 4,4 16 9 - - NW 1025,6
21.06.2018 13:00:00 16,9 4,8 18 10 - - NNW 1025,3
21.06.2018 12:00:00 17,5 5,8 18 10 - - NW 1025,0
21.06.2018 11:00:00 16,6 7,1 22 12 - - NW 1024,6
21.06.2018 10:00:00 15,6 7,0 18 10 - - NW 1024,1
21.06.2018 09:00:00 14,3 6,2 24 13 - - NW 1023,7
21.06.2018 08:00:00 13,3 6,5 22 12 - - WNW 1023,2
21.06.2018 07:00:00 13,1 7,0 16 9 - - NW 1022,8
21.06.2018 06:00:00 12,2 7,1 16 9 - - WNW 1022,3
21.06.2018 05:00:00 12,0 6,5 15 8 - - WNW 1021,8
21.06.2018 04:00:00 12,6 6,4 16 9 - - WNW 1021,5
21.06.2018 03:00:00 13,6 6,1 16 9 - - WNW 1021,2
21.06.2018 02:00:00 14,8 7,5 16 9 - - NW 1020,7
21.06.2018 01:00:00 15,7 9,2 21 11 - - NW 1020,0
21.06.2018 00:00:00 17,1 10,9 22 12 - - NW 1019,4
20.06.2018 23:00:00 19,1 14,3 15 8 - - W 1018,9
20.06.2018 22:00:00 19,5 14,4 16 9 - - W 1018,6
20.06.2018 21:00:00 21,0 15,6 26 14 - - W 1018,1
20.06.2018 20:00:00 22,6 15,9 22 12 - - W 1017,7
20.06.2018 19:00:00 23,6 15,5 16 9 - - SW 1017,6
20.06.2018 18:00:00 24,7 16,2 16 9 - - SW 1017,7
20.06.2018 17:00:00 25,1 16,5 16 9 - - SW 1018,1
20.06.2018 16:00:00 24,0 16,3 18 10 - - WSW 1018,8
20.06.2018 15:00:00 23,6 16,0 21 11 - - SW 1019,2
20.06.2018 14:00:00 23,1 16,0 18 10 - - SW 1019,5
20.06.2018 13:00:00 21,5 15,1 21 11 - - WSW 1020,0
20.06.2018 12:00:00 20,6 15,1 22 12 - - WSW 1020,3
20.06.2018 11:00:00 20,2 15,4 21 11 - - S 1020,3
20.06.2018 10:00:00 18,2 14,7 16 9 - - SSW 1020,7
20.06.2018 09:00:00 16,9 14,2 15 8 - - SW 1021,2
20.06.2018 08:00:00 16,4 14,5 16 9 - - SW 1021,1
20.06.2018 07:00:00 15,9 14,6 15 8 - - SSW 1020,9
20.06.2018 06:00:00 15,3 14,6 15 8 - - SSW 1020,8
20.06.2018 05:00:00 14,7 14,3 13 7 - - SSW 1021,0
20.06.2018 04:00:00 14,5 13,8 9 5 - - SSW 1021,0
20.06.2018 03:00:00 15,0 14,1 8 4 - - SW 1021,3
20.06.2018 02:00:00 15,3 14,4 5 3 - - SSW 1021,5
20.06.2018 01:00:00 15,2 14,2 8 4 - - SSW 1022,0
20.06.2018 00:00:00 16,3 14,8 9 5 - - SSW 1022,3
19.06.2018 23:00:00 17,6 15,2 9 5 - - SSW 1022,4
19.06.2018 22:00:00 18,7 15,4 8 4 - - SSW 1022,3
19.06.2018 21:00:00 20,6 15,8 15 8 - - SSW 1021,8
19.06.2018 20:00:00 22,5 16,3 18 10 - - SSW 1021,7
19.06.2018 19:00:00 23,5 16,5 16 9 - - SW 1021,6
19.06.2018 18:00:00 23,7 17,2 16 9 - - SSW 1021,6
19.06.2018 17:00:00 23,4 16,3 15 8 - - SSW 1022,0
19.06.2018 16:00:00 23,9 16,0 16 9 - - WSW 1022,2
19.06.2018 15:00:00 24,5 16,0 15 8 - - SW 1022,4
19.06.2018 14:00:00 23,4 15,5 15 8 - - WSW 1022,6
19.06.2018 13:00:00 23,8 16,0 13 7 - - WSW 1022,9
19.06.2018 12:00:00 21,2 15,0 13 7 - - WSW 1023,0
19.06.2018 11:00:00 21,6 14,2 8 4 - - WSW 1022,9
19.06.2018 10:00:00 20,1 15,0 11 6 - - WSW 1023,2
19.06.2018 09:00:00 18,9 14,4 13 7 - - W 1023,3
19.06.2018 08:00:00 18,2 14,4 16 9 - - WSW 1022,8
19.06.2018 07:00:00 18,3 14,8 18 10 - - W 1022,3
19.06.2018 06:00:00 18,4 15,3 21 11 - - WSW 1021,8
19.06.2018 05:00:00 18,5 15,1 22 12 - - WSW 1021,4
19.06.2018 04:00:00 18,5 15,4 16 9 - - WSW 1020,9
19.06.2018 03:00:00 18,7 15,1 28 15 - - WSW 1020,7
19.06.2018 02:00:00 18,7 15,4 24 13 - - WSW 1020,4
19.06.2018 01:00:00 18,4 15,6 22 12 - - WSW 1020,2
19.06.2018 00:00:00 17,8 15,1 18 10 - - SW 1020,2
18.06.2018 23:00:00 18,0 14,6 18 10 - - SW 1020,2
18.06.2018 22:00:00 18,5 14,3 18 10 - - SW 1020,0
18.06.2018 21:00:00 19,4 13,9 21 11 - - SW 1019,4
18.06.2018 20:00:00 21,1 13,8 22 12 - - SW 1019,1
18.06.2018 19:00:00 22,2 14,3 21 11 - - SW 1018,5
18.06.2018 18:00:00 24,2 14,5 22 12 - - W 1018,0
18.06.2018 17:00:00 24,4 14,3 24 13 - - W 1018,0
18.06.2018 16:00:00 24,7 13,5 18 10 - - WSW 1018,2
18.06.2018 15:00:00 24,2 11,6 22 12 - - WSW 1018,5
18.06.2018 14:00:00 22,6 12,3 22 12 - - WSW 1018,9
18.06.2018 13:00:00 21,6 12,9 18 10 - - WSW 1019,1
18.06.2018 12:00:00 19,0 12,7 18 10 - - WSW 1019,2
18.06.2018 11:00:00 19,0 11,8 26 14 - - WSW 1018,9
18.06.2018 10:00:00 18,2 12,5 31 17 - - WSW 1018,7
18.06.2018 09:00:00 18,2 13,5 24 13 - - WSW 1018,5
18.06.2018 08:00:00 16,7 13,0 24 13 - - WSW 1018,0
18.06.2018 07:00:00 15,7 13,3 18 10 - - WSW 1017,3
18.06.2018 06:00:00 16,1 14,3 24 13 - - WSW 1017,0
18.06.2018 05:00:00 15,7 14,5 13 7 - - SSW 1016,9
18.06.2018 04:00:00 16,1 14,4 13 7 - - SW 1016,4
18.06.2018 03:00:00 15,7 14,3 9 5 - - SW 1016,5
18.06.2018 02:00:00 15,5 14,2 15 8 - - SSW 1016,5
18.06.2018 01:00:00 15,3 14,1 13 7 - - SSW 1016,6
18.06.2018 00:00:00 15,3 13,9 18 10 - - SW 1017,1
17.06.2018 23:00:00 15,2 13,6 13 7 - - SSW 1016,9
17.06.2018 22:00:00 15,1 13,3 13 7 - - SSW 1016,9
17.06.2018 21:00:00 15,0 13,0 16 9 - - SSW 1016,9
17.06.2018 20:00:00 15,5 12,5 21 11 - - SSW 1017,0
17.06.2018 19:00:00 16,4 11,8 16 9 - - SSW 1016,7
17.06.2018 18:00:00 17,4 11,6 18 10 - - SSW 1016,3
17.06.2018 17:00:00 17,8 11,6 21 11 - - SSW 1016,5
17.06.2018 16:00:00 18,0 11,3 21 11 - - SSW 1016,5
17.06.2018 15:00:00 17,8 10,6 21 11 - - SW 1016,5
17.06.2018 14:00:00 18,7 10,3 18 10 - - SW 1016,3
17.06.2018 13:00:00 18,2 10,0 21 11 - - SW 1016,1
17.06.2018 12:00:00 17,9 10,6 15 8 - - SW 1016,2
17.06.2018 11:00:00 17,4 11,0 16 9 - - SW 1016,5
17.06.2018 10:00:00 15,8 11,4 21 11 - - WSW 1016,7
17.06.2018 09:00:00 14,3 11,9 13 7 - - SW 1016,5
17.06.2018 08:00:00 14,0 10,2 16 9 - - WSW 1016,3
17.06.2018 07:00:00 14,3 9,7 18 10 - - WSW 1015,7
17.06.2018 06:00:00 13,9 9,8 13 7 - - SW 1015,1
17.06.2018 05:00:00 13,8 9,6 13 7 - - SW 1015,0
17.06.2018 04:00:00 13,7 9,2 11 6 - - SW 1014,9
17.06.2018 03:00:00 13,3 8,8 11 6 - - SW 1014,7
17.06.2018 02:00:00 14,0 8,8 16 9 - - WSW 1014,7
17.06.2018 01:00:00 14,8 8,9 24 13 - - WSW 1014,5
17.06.2018 00:00:00 14,9 8,4 22 12 - - WSW 1014,3
16.06.2018 23:00:00 15,6 8,9 31 17 46 25 WSW 1014,0
16.06.2018 22:00:00 15,7 12,5 16 9 - - SSW 1013,6
16.06.2018 21:00:00 15,5 11,9 18 10 - - SSW 1013,0
16.06.2018 20:00:00 16,4 11,6 18 10 - - SSW 1013,1
16.06.2018 19:00:00 17,0 12,7 16 9 - - SSW 1013,1
16.06.2018 18:00:00 16,8 12,1 22 12 - - SSW 1013,3
16.06.2018 17:00:00 18,2 11,4 21 11 - - SW 1013,6
16.06.2018 16:00:00 18,7 11,7 24 13 - - SSW 1013,7
16.06.2018 15:00:00 18,8 10,1 22 12 - - SSW 1013,5
16.06.2018 14:00:00 21,1 11,5 22 12 - - SSW 1013,6
16.06.2018 13:00:00 19,2 10,2 21 11 - - SSW 1013,7
16.06.2018 12:00:00 18,4 9,1 18 10 - - SW 1014,0
16.06.2018 11:00:00 18,1 9,6 16 9 - - WSW 1014,1
16.06.2018 10:00:00 17,8 10,6 16 9 - - SW 1014,2
16.06.2018 09:00:00 17,3 11,8 13 7 - - SW 1014,5
16.06.2018 08:00:00 15,4 11,1 11 6 - - SSW 1014,7
16.06.2018 07:00:00 14,4 9,6 8 4 - - SSW 1014,5
16.06.2018 06:00:00 13,6 9,4 5 3 - - SSW 1014,4
16.06.2018 05:00:00 13,3 9,3 5 3 - - SSW 1014,5
16.06.2018 04:00:00 13,6 9,6 8 4 - - SW 1014,8
16.06.2018 03:00:00 14,7 8,0 4 2 - - S 1014,9
16.06.2018 02:00:00 16,3 7,2 9 5 - - WNW 1015,2
16.06.2018 01:00:00 16,5 7,2 13 7 - - W 1015,5
16.06.2018 00:00:00 17,1 7,4 9 5 - - WNW 1015,2
15.06.2018 23:00:00 17,1 8,9 11 6 - - W 1015,4
15.06.2018 22:00:00 16,2 10,4 4 2 - - WNW 1015,4
15.06.2018 21:00:00 18,9 8,8 11 6 - - SW 1014,9
15.06.2018 20:00:00 19,9 9,4 13 7 - - WSW 1014,8
15.06.2018 19:00:00 20,7 10,1 11 6 - - WSW 1014,7
15.06.2018 18:00:00 21,6 9,7 16 9 - - WSW 1014,9

tt = Température de l'air
td = dewpoint
ff = Vitesse du vent
fx = gusts
dd = Direction du vent
ppp = reduced air pressure

stations d'obs. à proximité